Wykoff, MN (55990)

8:51 PM CST on January 20, 2017 (GMT -0600)
Preston | | Change Station
Active Advisory: Dense Fog Advisory

Elev 1276 ft 43.68 °N, 92.18 °W | Updated 17 minutes ago

Fog
Fog
33 °F
Feels Like 29 °F
N
5
Wind Variable Wind from ESE

Today
High -- | Low -- °F
--% Chance of Precip.
Yesterday
High -- | Low -- °F
Precip. -- in
Pressure 29.57 in
Visibility 0.2 miles
Clouds Overcast 200 ft
Windchill 29 °F
Dew Point 32 °F
Humidity 97%
Rainfall 0.03 in
Snow Depth Not available.
7:36 AM 5:04 PM
Last Quarter, 39% visible
METAR KFKA 210234Z AUTO 12004KT 1/4SM FG OVC002 01/00 A2957 RMK AO2 T00060002
Pressure 29.57 in
Visibility 0.2 miles
Clouds Overcast 200 ft
Windchill 29 °F
Dew Point 32 °F
Humidity 97%
Rainfall 0.03 in
Snow Depth Not available.
7:36 AM 5:04 PM
Last Quarter, 39% visible
METAR KFKA 210234Z AUTO 12004KT 1/4SM FG OVC002 01/00 A2957 RMK AO2 T00060002

Get Your Daily Forecast Email!

Thanks for signing up!

Be on the lookout for a verification email in your inbox.

You'll start receiving the daily forecast at 8 AM.

×

10-Day Weather Forecast

Almanac

Astronomy

Jan. 20, 2017 Rise Set
Actual Time
Civil Twilight
Nautical Twilight
Astronomical Twilight
Moon
Length of Visible Light
Length of Day
Tomorrow will be .
, % of the Moon is Illuminated

Today's Extremes

State Highs State Lows

Community

WunderPhotos

Upload Photos

1,962,540 photos uploaded!

WunderBlog® & News

Nearby

Air Quality

  Air Quality AQ Index Pollutant
Not available.

Snow Depth

Station Depth Elevation

Earthquake Activity

City Distance Mag. Time & Date
Minimum magnitude displayed is 2.5.

Coastal Water Temperatures

Place Temperature

Stations

Nearby Weather Stations

Station Location Temp. Windchill Dew Point Humidity Wind Precip. Elev Updated Type
                   

Watches & Warnings

Dense Fog Advisory
Issued: 6:14 PM CST Jan. 20, 2017 – National Weather Service

... Dense fog advisory remains in effect until noon CST Saturday...

* dense fog will continue this evening and overnight... with
visibility reduced to one quarter mile or less.

* Lowest visibility near and west of the Mississippi River and
along ridge tops.

* Impacts... severely reduced visibility at times impacting
travel.

Precautionary/preparedness actions...

A dense fog advisory means visibilities will frequently be
reduced to less than one quarter mile. If driving... slow down...
use your headlights... and leave plenty of distance ahead of you.



Rogers